Time;durP1;ratioP1;P1;durP2;ratioP2;P2;SDS_P1;SDS_P2;PMS_P1;PMS_P2;Temp;Humidity;BMP_temperature;BMP_pressure;BME280_temperature;BME280_humidity;BME280_pressure;Samples;Min_cycle;Max_cycle;Signal;HPM_P1;HPM_P2
2024/01/22 00:00:58;;;;;;;5.87;3.60;;;3.50;99.90;;;;;;5013027;28;20178;-70
2024/01/22 00:03:23;;;;;;;4.03;3.10;;;3.50;99.90;;;;;;5008252;28;20469;-71
2024/01/22 00:05:49;;;;;;;3.40;2.63;;;3.50;99.90;;;;;;5007523;28;20290;-71
2024/01/22 00:08:14;;;;;;;4.90;3.50;;;3.40;99.90;;;;;;5016647;28;20265;-70
2024/01/22 00:10:40;;;;;;;4.73;3.33;;;3.30;99.90;;;;;;5018011;28;20175;-70
2024/01/22 00:13:05;;;;;;;4.50;3.40;;;3.20;99.90;;;;;;5015339;28;20212;-70
2024/01/22 00:15:32;;;;;;;4.30;2.87;;;3.20;99.90;;;;;;5015462;28;20249;-70
2024/01/22 00:17:57;;;;;;;6.13;3.20;;;3.10;99.90;;;;;;5014984;28;20193;-71
2024/01/22 00:20:23;;;;;;;3.43;2.97;;;3.10;99.90;;;;;;5020805;28;20432;-70
2024/01/22 00:22:49;;;;;;;4.60;3.30;;;3.10;99.90;;;;;;5016488;28;20191;-70
2024/01/22 00:25:14;;;;;;;3.57;3.27;;;3.10;73.10;;;;;;4993698;28;20256;-71
2024/01/22 00:27:40;;;;;;;3.13;2.73;;;3.00;99.90;;;;;;5013659;28;20774;-70
2024/01/22 00:30:06;;;;;;;3.63;2.80;;;3.00;99.90;;;;;;5020338;28;20192;-69
2024/01/22 00:32:31;;;;;;;4.03;2.80;;;3.00;99.90;;;;;;5005885;28;20601;-70
2024/01/22 00:34:57;;;;;;;3.83;3.43;;;2.90;99.90;;;;;;5020766;28;20429;-71
2024/01/22 00:37:22;;;;;;;11.00;3.20;;;2.90;99.90;;;;;;4997616;28;20206;-70
2024/01/22 00:39:48;;;;;;;3.70;3.40;;;2.90;99.90;;;;;;5004307;28;20641;-70
2024/01/22 00:42:14;;;;;;;4.40;3.27;;;2.80;99.90;;;;;;5011331;28;20266;-70
2024/01/22 00:44:41;;;;;;;4.53;3.07;;;2.80;99.90;;;;;;5011294;28;20446;-70
2024/01/22 00:47:06;;;;;;;3.00;2.80;;;2.70;99.90;;;;;;5015002;28;20200;-71
2024/01/22 00:49:32;;;;;;;3.93;3.37;;;2.80;1.00;;;;;;5018513;28;20433;-69
2024/01/22 00:51:57;;;;;;;4.20;2.93;;;2.80;1.00;;;;;;5018297;28;20279;-70
2024/01/22 00:54:23;;;;;;;3.53;3.23;;;2.70;1.00;;;;;;5019232;28;20247;-70
2024/01/22 00:56:48;;;;;;;4.43;3.07;;;2.70;1.00;;;;;;5020124;28;20244;-69
2024/01/22 00:59:14;;;;;;;7.00;3.70;;;2.70;1.00;;;;;;5017919;28;20210;-70
2024/01/22 01:01:39;;;;;;;4.77;2.90;;;2.70;1.00;;;;;;5014222;28;20175;-70
2024/01/22 01:04:05;;;;;;;5.47;3.40;;;2.70;1.00;;;;;;5017346;28;20206;-69
2024/01/22 01:06:31;;;;;;;4.40;2.90;;;2.60;1.00;;;;;;5022242;28;20205;-70
2024/01/22 01:08:56;;;;;;;5.60;3.03;;;2.50;1.00;;;;;;5025573;28;20228;-70
2024/01/22 01:11:22;;;;;;;4.97;3.90;;;2.40;1.00;;;;;;5020580;28;20217;-71
2024/01/22 01:13:47;;;;;;;4.80;3.30;;;2.40;1.00;;;;;;5023218;28;20252;-69
2024/01/22 01:16:13;;;;;;;3.03;2.70;;;2.30;1.00;;;;;;5023590;28;20574;-70
2024/01/22 01:18:38;;;;;;;3.87;3.43;;;2.30;1.00;;;;;;5014386;28;20179;-70
2024/01/22 01:21:04;;;;;;;4.07;3.27;;;2.30;1.00;;;;;;5015292;28;20775;-70
2024/01/22 01:23:29;;;;;;;4.17;3.10;;;2.30;1.00;;;;;;5020362;28;20213;-70
2024/01/22 01:25:55;;;;;;;7.67;3.60;;;2.30;1.00;;;;;;5026032;28;20198;-70
2024/01/22 01:28:20;;;;;;;4.87;4.37;;;2.30;1.00;;;;;;5012950;28;20178;-70
2024/01/22 01:30:46;;;;;;;4.60;4.20;;;2.20;1.00;;;;;;5017141;28;20167;-71
2024/01/22 01:33:11;;;;;;;4.40;3.33;;;2.20;1.00;;;;;;5020914;28;20555;-70
2024/01/22 01:35:37;;;;;;;4.50;3.23;;;2.20;1.00;;;;;;5014392;28;20205;-70
2024/01/22 01:38:02;;;;;;;3.90;3.00;;;2.20;1.00;;;;;;5016927;28;20187;-71
2024/01/22 01:40:28;;;;;;;3.80;3.50;;;2.30;1.00;;;;;;5007871;28;20186;-70
2024/01/22 01:42:55;;;;;;;5.67;3.10;;;2.20;1.00;;;;;;5016231;28;20256;-70
2024/01/22 01:45:20;;;;;;;10.80;4.00;;;2.20;1.00;;;;;;5003450;28;20179;-70
2024/01/22 01:47:49;;;;;;;3.97;3.17;;;2.10;1.00;;;;;;5012356;28;20426;-70
2024/01/22 01:50:17;;;;;;;4.60;3.13;;;2.00;1.00;;;;;;5020591;28;20186;-70
2024/01/22 01:52:43;;;;;;;5.47;3.50;;;2.00;1.00;;;;;;5013747;28;20425;-70
2024/01/22 01:55:10;;;;;;;4.20;3.70;;;2.00;1.00;;;;;;5015910;28;20441;-70
2024/01/22 01:57:38;;;;;;;6.10;3.60;;;2.00;1.00;;;;;;5021435;28;20934;-70
2024/01/22 02:00:06;;;;;;;5.27;3.93;;;1.90;1.00;;;;;;5031376;28;20436;-70
2024/01/22 02:02:31;;;;;;;4.70;3.30;;;1.90;1.00;;;;;;5020328;28;20492;-70
2024/01/22 02:04:57;;;;;;;4.40;3.90;;;1.90;1.00;;;;;;5021385;28;20421;-71
2024/01/22 02:07:23;;;;;;;4.90;3.93;;;1.90;1.00;;;;;;5020881;28;20691;-69
2024/01/22 02:09:50;;;;;;;4.47;3.10;;;1.80;1.00;;;;;;5015966;28;20660;-70
2024/01/22 02:12:17;;;;;;;3.93;3.07;;;1.80;1.00;;;;;;5009916;28;20443;-71
2024/01/22 02:14:43;;;;;;;3.70;2.53;;;1.80;1.00;;;;;;4997064;28;20505;-70
2024/01/22 02:17:08;;;;;;;4.67;3.60;;;1.90;1.00;;;;;;5006351;28;20975;-70
2024/01/22 02:19:34;;;;;;;4.87;3.17;;;1.90;1.00;;;;;;5017615;28;20961;-69
2024/01/22 02:21:59;;;;;;;5.13;3.20;;;1.80;1.00;;;;;;5021080;28;20171;-70
2024/01/22 02:24:25;;;;;;;5.83;3.87;;;1.80;1.00;;;;;;5006085;28;20569;-70
2024/01/22 02:26:51;;;;;;;6.30;3.27;;;1.80;1.00;;;;;;5022134;28;20276;-70
2024/01/22 02:29:16;;;;;;;7.60;4.43;;;1.80;1.00;;;;;;5012091;28;20532;-69
2024/01/22 02:31:42;;;;;;;4.50;4.10;;;1.80;1.00;;;;;;5011583;28;20182;-70
2024/01/22 02:34:08;;;;;;;4.80;3.30;;;1.90;1.00;;;;;;5022003;28;20646;-71
2024/01/22 02:36:33;;;;;;;5.90;4.00;;;1.90;1.00;;;;;;5015311;28;20199;-69
2024/01/22 02:38:59;;;;;;;4.90;3.47;;;1.80;1.00;;;;;;5012603;28;20679;-70
2024/01/22 02:41:24;;;;;;;3.70;2.93;;;1.70;1.00;;;;;;5020410;28;20207;-70
2024/01/22 02:43:50;;;;;;;5.43;4.63;;;1.60;1.00;;;;;;5010212;28;20217;-70
2024/01/22 02:46:16;;;;;;;5.77;4.30;;;1.60;1.00;;;;;;5014163;28;20591;-70
2024/01/22 02:48:42;;;;;;;5.70;4.40;;;1.60;1.00;;;;;;5010253;28;20175;-69
2024/01/22 02:51:08;;;;;;;5.70;3.60;;;1.60;1.00;;;;;;5021594;28;20984;-69
2024/01/22 02:53:34;;;;;;;3.23;2.93;;;1.70;1.00;;;;;;5018184;28;20183;-71
2024/01/22 02:55:59;;;;;;;6.83;3.20;;;1.80;1.00;;;;;;5019644;28;20453;-70
2024/01/22 02:58:25;;;;;;;3.53;3.20;;;1.80;1.00;;;;;;5012046;28;20179;-70
2024/01/22 03:00:50;;;;;;;4.67;4.27;;;1.70;1.00;;;;;;5011831;28;20255;-70
2024/01/22 03:03:16;;;;;;;7.97;4.00;;;1.60;8.80;;;;;;5015518;28;20200;-69
2024/01/22 03:05:41;;;;;;;5.60;3.73;;;1.50;8.70;;;;;;5015295;28;20207;-69
2024/01/22 03:08:07;;;;;;;3.93;3.13;;;1.40;13.10;;;;;;5018902;28;20202;-70
2024/01/22 03:10:33;;;;;;;5.27;4.70;;;1.30;18.20;;;;;;5024130;28;20549;-69
2024/01/22 03:12:58;;;;;;;4.70;3.03;;;1.30;16.10;;;;;;5018408;28;20178;-70
2024/01/22 03:15:24;;;;;;;4.00;2.57;;;1.40;24.50;;;;;;5019661;28;20426;-69
2024/01/22 03:17:49;;;;;;;3.93;3.10;;;1.50;27.40;;;;;;5012256;28;20178;-70
2024/01/22 03:20:15;;;;;;;4.20;2.93;;;1.50;28.00;;;;;;5012410;28;20183;-70
2024/01/22 03:22:40;;;;;;;4.57;3.67;;;1.60;28.70;;;;;;5017257;28;20198;-69
2024/01/22 03:25:06;;;;;;;3.43;2.90;;;1.70;33.80;;;;;;5020941;28;20632;-70
2024/01/22 03:27:32;;;;;;;3.67;2.70;;;1.70;42.70;;;;;;5009769;28;20206;-70
2024/01/22 03:29:57;;;;;;;3.43;2.70;;;1.70;46.30;;;;;;5016229;28;20613;-70
2024/01/22 03:32:23;;;;;;;3.83;3.30;;;1.80;47.70;;;;;;5016958;28;20175;-70
2024/01/22 03:34:48;;;;;;;3.77;3.43;;;1.80;42.60;;;;;;5018524;28;20202;-69
2024/01/22 03:37:14;;;;;;;3.60;3.20;;;1.80;49.40;;;;;;5016551;28;20243;-69
2024/01/22 03:39:39;;;;;;;10.47;3.70;;;1.80;42.70;;;;;;5018476;28;20237;-70
2024/01/22 03:42:08;;;;;;;6.80;3.00;;;1.80;42.70;;;;;;5002564;28;20179;-70
2024/01/22 03:44:33;;;;;;;5.90;3.77;;;1.80;59.20;;;;;;5010430;28;20205;-70
2024/01/22 03:46:59;;;;;;;4.60;3.07;;;1.90;55.60;;;;;;5019695;28;20457;-70
2024/01/22 03:49:24;;;;;;;4.53;3.43;;;1.90;55.70;;;;;;5018027;28;20179;-70
2024/01/22 03:51:50;;;;;;;3.23;3.03;;;1.90;48.80;;;;;;5020357;28;20190;-70
2024/01/22 03:54:15;;;;;;;3.90;3.30;;;2.10;44.30;;;;;;5014039;28;20660;-70
2024/01/22 03:56:41;;;;;;;3.43;2.90;;;2.20;37.10;;;;;;5010526;28;20218;-70
2024/01/22 03:59:06;;;;;;;4.73;3.50;;;2.40;35.70;;;;;;5011903;28;20186;-70
2024/01/22 04:01:32;;;;;;;4.33;3.50;;;2.40;30.70;;;;;;5011395;28;20265;-70
2024/01/22 04:03:57;;;;;;;6.50;4.77;;;2.50;39.60;;;;;;5014310;28;20199;-70
2024/01/22 04:06:23;;;;;;;3.43;2.80;;;2.50;44.10;;;;;;5018836;28;20241;-70
2024/01/22 04:08:48;;;;;;;3.67;3.37;;;2.60;38.00;;;;;;5008484;28;20175;-71
2024/01/22 04:11:14;;;;;;;4.93;3.60;;;2.60;37.20;;;;;;4999139;28;20533;-70
2024/01/22 04:13:40;;;;;;;4.53;2.93;;;2.60;30.50;;;;;;5011853;28;20198;-70
2024/01/22 04:16:06;;;;;;;4.03;2.90;;;2.60;31.90;;;;;;5010767;28;20481;-70
2024/01/22 04:18:31;;;;;;;4.20;3.23;;;2.60;33.80;;;;;;5018094;28;20221;-70
2024/01/22 04:20:57;;;;;;;4.00;3.50;;;2.50;38.10;;;;;;5021089;28;20233;-70
2024/01/22 04:23:22;;;;;;;3.77;3.20;;;2.60;32.10;;;;;;5022322;28;20198;-70
2024/01/22 04:25:48;;;;;;;6.20;3.70;;;2.60;36.10;;;;;;5009022;28;20199;-69
2024/01/22 04:28:14;;;;;;;3.63;3.00;;;2.70;34.80;;;;;;5011931;28;20179;-70
2024/01/22 04:30:40;;;;;;;3.17;2.90;;;2.60;46.90;;;;;;5014159;28;20171;-70
2024/01/22 04:33:06;;;;;;;3.70;3.03;;;2.60;42.80;;;;;;5016123;28;20812;-70
2024/01/22 04:35:31;;;;;;;4.90;3.43;;;2.60;37.70;;;;;;5013007;28;21278;-70
2024/01/22 04:37:57;;;;;;;5.70;3.57;;;2.60;36.00;;;;;;5020764;28;20183;-70
2024/01/22 04:40:22;;;;;;;5.00;3.17;;;2.70;42.30;;;;;;5026942;28;20253;-69
2024/01/22 04:42:48;;;;;;;3.67;3.30;;;2.70;37.80;;;;;;5015393;28;20683;-70
2024/01/22 04:45:13;;;;;;;4.00;3.47;;;2.70;45.60;;;;;;5009014;28;20652;-70
2024/01/22 04:47:39;;;;;;;5.13;3.17;;;2.80;55.00;;;;;;5020981;28;20194;-70
2024/01/22 04:50:05;;;;;;;5.80;4.67;;;2.80;52.70;;;;;;5014747;28;20194;-70
2024/01/22 04:52:31;;;;;;;8.10;4.67;;;2.80;54.40;;;;;;5025796;28;20283;-70
2024/01/22 04:54:57;;;;;;;6.90;4.00;;;2.80;61.00;;;;;;5017514;28;20516;-70
2024/01/22 04:57:23;;;;;;;4.17;3.77;;;2.80;53.30;;;;;;5022894;28;21030;-70
2024/01/22 04:59:48;;;;;;;5.13;3.50;;;2.70;58.70;;;;;;5022318;28;20186;-70
2024/01/22 05:02:14;;;;;;;5.80;4.00;;;2.80;67.50;;;;;;5024028;28;20181;-70
2024/01/22 05:04:39;;;;;;;5.30;4.80;;;2.70;63.10;;;;;;5013929;28;20820;-69
2024/01/22 05:07:05;;;;;;;3.83;3.40;;;2.70;70.80;;;;;;5022170;28;20206;-70
2024/01/22 05:09:31;;;;;;;4.23;3.27;;;2.70;75.70;;;;;;5017772;28;20213;-69
2024/01/22 05:11:56;;;;;;;5.50;3.00;;;2.70;67.80;;;;;;5024996;28;20178;-70
2024/01/22 05:14:22;;;;;;;3.43;3.03;;;2.90;58.20;;;;;;5015861;28;20429;-70
2024/01/22 05:16:48;;;;;;;4.53;2.80;;;3.10;47.00;;;;;;5014597;28;20674;-70
2024/01/22 05:19:14;;;;;;;2.97;2.43;;;3.30;39.60;;;;;;5000614;28;20199;-70
2024/01/22 05:21:39;;;;;;;5.00;3.20;;;3.50;28.70;;;;;;4995267;28;20553;-69
2024/01/22 05:24:06;;;;;;;2.67;2.47;;;3.70;23.70;;;;;;5008304;28;20207;-69
2024/01/22 05:26:34;;;;;;;3.00;2.67;;;3.90;17.60;;;;;;5004847;28;20191;-71
2024/01/22 05:28:59;;;;;;;3.03;2.73;;;4.00;9.70;;;;;;5016008;28;21051;-69
2024/01/22 05:31:25;;;;;;;3.37;2.80;;;4.20;7.10;;;;;;5011900;28;20506;-70
2024/01/22 05:33:50;;;;;;;4.10;2.83;;;4.30;10.60;;;;;;4994909;28;20180;-69
2024/01/22 05:36:16;;;;;;;2.93;2.47;;;4.30;6.00;;;;;;5007208;28;20192;-69
2024/01/22 05:38:41;;;;;;;4.07;3.03;;;4.40;4.30;;;;;;5006250;28;20214;-70
2024/01/22 05:41:07;;;;;;;2.80;2.60;;;4.50;5.50;;;;;;4998212;28;20748;-70
2024/01/22 05:43:32;;;;;;;3.70;2.17;;;4.60;1.00;;;;;;5009366;28;20278;-71
2024/01/22 05:45:58;;;;;;;4.77;3.20;;;4.50;1.00;;;;;;5012523;28;20242;-71
2024/01/22 05:48:23;;;;;;;3.40;3.10;;;4.60;1.00;;;;;;4994400;28;20176;-70
2024/01/22 05:50:49;;;;;;;2.53;2.33;;;4.60;1.00;;;;;;4994577;28;20172;-71
2024/01/22 05:53:15;;;;;;;3.87;3.20;;;4.60;1.00;;;;;;5015961;28;20556;-70
2024/01/22 05:55:41;;;;;;;3.50;3.17;;;4.60;1.00;;;;;;5005524;28;20651;-70
2024/01/22 05:58:06;;;;;;;5.70;3.30;;;4.70;1.00;;;;;;5013592;23;20551;-71
2024/01/22 06:00:32;;;;;;;3.27;2.80;;;4.80;1.00;;;;;;5013158;28;20207;-69
2024/01/22 06:02:58;;;;;;;3.40;3.10;;;4.90;1.00;;;;;;5004704;28;20202;-70
2024/01/22 06:05:24;;;;;;;3.90;3.53;;;5.00;1.00;;;;;;4994345;28;20411;-69
2024/01/22 06:07:49;;;;;;;3.90;3.20;;;5.00;1.00;;;;;;4995069;28;20457;-70
2024/01/22 06:10:15;;;;;;;3.40;3.10;;;5.10;1.00;;;;;;4994458;28;20275;-69
2024/01/22 06:12:41;;;;;;;8.87;3.73;;;5.20;1.00;;;;;;4994196;28;20319;-69
2024/01/22 06:15:07;;;;;;;3.00;2.70;;;5.20;1.00;;;;;;4994150;28;20180;-70
2024/01/22 06:17:33;;;;;;;4.33;3.17;;;5.20;1.00;;;;;;4993766;28;20195;-70
2024/01/22 06:20:00;;;;;;;4.30;3.20;;;5.20;1.00;;;;;;4994050;28;20418;-69
2024/01/22 06:22:26;;;;;;;3.60;3.07;;;5.20;1.00;;;;;;4995042;28;20443;-69
2024/01/22 06:24:52;;;;;;;4.67;4.17;;;5.20;1.00;;;;;;4993988;28;20444;-69
2024/01/22 06:27:17;;;;;;;4.10;3.07;;;5.20;1.00;;;;;;4976280;28;20501;-70
2024/01/22 06:29:43;;;;;;;5.33;4.43;;;5.20;1.00;;;;;;4995458;28;20563;-70
2024/01/22 06:32:09;;;;;;;4.20;3.20;;;5.20;1.00;;;;;;5013109;28;20603;-69
2024/01/22 06:34:35;;;;;;;4.40;2.70;;;5.20;1.00;;;;;;5013269;28;20810;-70
2024/01/22 06:37:01;;;;;;;4.90;2.90;;;5.20;1.00;;;;;;5011404;28;20199;-69
2024/01/22 06:39:26;;;;;;;4.60;3.30;;;5.20;1.00;;;;;;5013410;28;20427;-69
2024/01/22 06:41:52;;;;;;;4.20;3.17;;;5.20;1.00;;;;;;5013004;28;20182;-69
2024/01/22 06:44:17;;;;;;;4.77;3.27;;;5.10;1.00;;;;;;5013074;28;20195;-69
2024/01/22 06:46:43;;;;;;;3.10;2.87;;;5.20;1.00;;;;;;5012946;28;20195;-69
2024/01/22 06:49:08;;;;;;;2.87;2.67;;;5.20;1.00;;;;;;5004066;28;20178;-69
2024/01/22 06:51:34;;;;;;;3.00;2.80;;;5.20;1.00;;;;;;4993359;28;20668;-69
2024/01/22 06:53:59;;;;;;;3.37;3.07;;;5.20;1.00;;;;;;4994530;28;20187;-69
2024/01/22 06:56:25;;;;;;;5.63;3.00;;;5.20;1.00;;;;;;4993056;28;20218;-69
2024/01/22 06:58:50;;;;;;;8.80;6.43;;;5.20;1.00;;;;;;4993218;28;20190;-69
2024/01/22 07:01:16;;;;;;;4.43;3.20;;;5.30;1.00;;;;;;4998096;28;20332;-69
2024/01/22 07:03:41;;;;;;;3.67;3.30;;;5.30;1.00;;;;;;5010841;28;20663;-69
2024/01/22 07:06:07;;;;;;;2.90;2.60;;;5.40;1.00;;;;;;5012797;28;20509;-69
2024/01/22 07:08:32;;;;;;;2.63;2.43;;;5.50;1.00;;;;;;5010985;28;20175;-69
2024/01/22 07:10:58;;;;;;;2.73;2.53;;;5.50;1.00;;;;;;5012764;28;20520;-69
2024/01/22 07:13:24;;;;;;;3.30;2.40;;;5.50;1.00;;;;;;5012838;28;20199;-69
2024/01/22 07:15:49;;;;;;;2.70;2.50;;;5.50;1.00;;;;;;5004320;28;20183;-69
2024/01/22 07:18:15;;;;;;;4.43;3.37;;;5.60;1.00;;;;;;4992711;28;20200;-70
2024/01/22 07:20:40;;;;;;;2.80;2.60;;;5.70;1.00;;;;;;4993162;28;20660;-70
2024/01/22 07:23:06;;;;;;;4.53;3.13;;;5.70;1.00;;;;;;4994074;28;20253;-70
2024/01/22 07:25:36;;;;;;;2.83;2.50;;;5.70;1.00;;;;;;4993127;28;20546;-70
2024/01/22 07:28:02;;;;;;;5.23;2.73;;;5.70;1.00;;;;;;4992514;28;21017;-69
2024/01/22 07:30:28;;;;;;;3.40;2.63;;;5.70;1.00;;;;;;5008870;28;20418;-69
2024/01/22 07:32:54;;;;;;;3.27;2.80;;;5.70;1.00;;;;;;4998299;28;20763;-70
2024/01/22 07:35:19;;;;;;;3.10;2.80;;;5.80;1.00;;;;;;4992774;28;20183;-69
2024/01/22 07:37:45;;;;;;;3.40;2.40;;;5.80;1.00;;;;;;4992794;28;20290;-69
2024/01/22 07:40:11;;;;;;;1.77;1.67;;;5.90;1.00;;;;;;5012080;28;20218;-69
2024/01/22 07:42:38;;;;;;;3.67;2.73;;;6.00;1.00;;;;;;5012246;28;20203;-69
2024/01/22 07:45:07;;;;;;;2.70;2.30;;;6.10;1.00;;;;;;5012327;28;20425;-69
2024/01/22 07:47:34;;;;;;;2.57;2.37;;;6.20;1.00;;;;;;5011828;28;20437;-69
2024/01/22 07:50:00;;;;;;;4.90;1.93;;;6.40;1.00;;;;;;5009147;28;20518;-69
2024/01/22 07:52:25;;;;;;;2.97;2.10;;;6.50;1.00;;;;;;5012224;28;20509;-69
2024/01/22 07:54:51;;;;;;;3.33;2.27;;;6.60;1.00;;;;;;5010666;28;20429;-69
2024/01/22 07:57:17;;;;;;;2.67;1.70;;;6.60;1.00;;;;;;5011668;28;20210;-69
2024/01/22 07:59:43;;;;;;;2.40;1.93;;;6.60;1.00;;;;;;5014179;28;20174;-69
2024/01/22 08:02:08;;;;;;;2.37;1.90;;;6.70;1.00;;;;;;5016394;28;20174;-69
2024/01/22 08:04:35;;;;;;;2.23;1.93;;;6.70;1.00;;;;;;5002746;28;20245;-69
2024/01/22 08:07:03;;;;;;;1.97;1.70;;;6.70;1.00;;;;;;4996308;28;20621;-69
2024/01/22 08:09:31;;;;;;;2.43;1.90;;;6.70;1.00;;;;;;4997745;28;20433;-69
2024/01/22 08:11:57;;;;;;;2.47;2.10;;;6.70;1.00;;;;;;4996569;28;20414;-69
2024/01/22 08:14:23;;;;;;;2.50;1.80;;;6.80;1.00;;;;;;4996435;28;20437;-69
2024/01/22 08:16:49;;;;;;;1.70;1.47;;;6.80;1.00;;;;;;5003017;28;20202;-70
2024/01/22 08:19:15;;;;;;;5.63;2.37;;;6.90;1.00;;;;;;4997368;28;20221;-69
2024/01/22 08:21:41;;;;;;;3.77;2.10;;;6.90;1.00;;;;;;5015717;28;20425;-69
2024/01/22 08:24:06;;;;;;;3.43;1.60;;;7.00;1.00;;;;;;5014074;28;20484;-69
2024/01/22 08:26:32;;;;;;;2.60;1.57;;;7.00;1.00;;;;;;5015287;28;20202;-69
2024/01/22 08:28:57;;;;;;;3.90;1.97;;;7.10;1.00;;;;;;5015585;28;20186;-69
2024/01/22 08:31:23;;;;;;;1.70;1.40;;;7.20;1.00;;;;;;5015636;28;20174;-69
2024/01/22 08:33:49;;;;;;;2.30;1.60;;;7.30;1.00;;;;;;4998879;28;20179;-69
2024/01/22 08:36:15;;;;;;;2.50;1.93;;;7.40;1.00;;;;;;4995663;28;20233;-69
2024/01/22 08:38:40;;;;;;;1.67;1.57;;;7.60;1.00;;;;;;4995812;28;20422;-69
2024/01/22 08:41:08;;;;;;;1.27;1.10;;;7.80;1.00;;;;;;4996724;28;20435;-69
2024/01/22 08:43:34;;;;;;;1.17;1.07;;;8.00;1.00;;;;;;4995744;28;20279;-69
2024/01/22 08:46:00;;;;;;;2.07;1.90;;;8.10;1.00;;;;;;4995633;28;20964;-69
2024/01/22 08:48:25;;;;;;;3.63;1.23;;;8.30;1.00;;;;;;4996648;28;20425;-69
2024/01/22 08:50:51;;;;;;;3.17;1.20;;;8.40;1.20;;;;;;5015155;28;20159;-69
2024/01/22 08:53:16;;;;;;;1.53;1.07;;;8.60;1.90;;;;;;5015057;28;20186;-69
2024/01/22 08:55:42;;;;;;;1.83;1.17;;;8.70;1.00;;;;;;5013599;28;20195;-69
2024/01/22 08:58:09;;;;;;;0.73;0.73;;;8.80;1.00;;;;;;5014791;28;20207;-69
2024/01/22 09:00:35;;;;;;;1.00;0.90;;;8.90;11.40;;;;;;5003408;28;20218;-69
2024/01/22 09:03:00;;;;;;;3.30;1.17;;;9.00;10.50;;;;;;4995183;28;20972;-69
2024/01/22 09:05:26;;;;;;;1.23;1.00;;;9.00;16.40;;;;;;4995572;28;20207;-69
2024/01/22 09:07:51;;;;;;;1.40;1.00;;;9.10;18.40;;;;;;4994993;28;20195;-69
2024/01/22 09:10:17;;;;;;;1.10;1.10;;;9.30;28.80;;;;;;5003329;28;20187;-69
2024/01/22 09:12:44;;;;;;;1.60;1.27;;;9.50;29.50;;;;;;5014689;28;20174;-69
2024/01/22 09:15:12;;;;;;;2.60;1.20;;;9.70;33.10;;;;;;5014800;28;20472;-69
2024/01/22 09:17:39;;;;;;;1.70;1.60;;;9.80;30.80;;;;;;5012186;28;20830;-69
2024/01/22 09:20:06;;;;;;;1.53;1.33;;;10.00;27.20;;;;;;5014904;28;20476;-69
2024/01/22 09:22:31;;;;;;;2.00;1.80;;;10.20;24.60;;;;;;4999048;28;20422;-70
2024/01/22 09:24:57;;;;;;;1.00;1.00;;;10.30;20.00;;;;;;4996129;28;20437;-69
2024/01/22 09:27:23;;;;;;;1.73;0.80;;;10.40;15.90;;;;;;4994573;28;20195;-69
2024/01/22 09:29:48;;;;;;;1.37;1.27;;;10.50;13.50;;;;;;4994895;28;20179;-69
2024/01/22 09:32:15;;;;;;;1.87;1.10;;;10.60;8.30;;;;;;4995148;28;20517;-69
2024/01/22 09:34:40;;;;;;;1.63;0.90;;;10.60;6.30;;;;;;4995917;28;20539;-69
2024/01/22 09:37:06;;;;;;;1.30;1.20;;;10.70;5.20;;;;;;4996110;28;20443;-69
2024/01/22 09:39:32;;;;;;;4.30;0.80;;;10.80;7.90;;;;;;5012678;28;20217;-69
2024/01/22 09:41:58;;;;;;;2.60;0.80;;;10.90;5.60;;;;;;5014361;28;20178;-69
2024/01/22 09:44:25;;;;;;;0.90;0.90;;;11.00;5.60;;;;;;5014387;28;20894;-69
2024/01/22 09:46:51;;;;;;;0.70;0.70;;;11.10;7.00;;;;;;5013843;28;20966;-69
2024/01/22 09:49:16;;;;;;;2.03;1.40;;;11.00;11.50;;;;;;5014221;28;20421;-69
2024/01/22 09:51:44;;;;;;;0.70;0.60;;;11.00;14.90;;;;;;5009506;28;20568;-69
2024/01/22 09:54:23;;;;;;;0.80;0.80;;;11.00;17.90;;;;;;4995680;28;20257;-69
2024/01/22 09:56:52;;;;;;;0.93;0.90;;;11.00;18.80;;;;;;4993989;28;20486;-69
2024/01/22 09:59:19;;;;;;;1.77;1.00;;;11.10;23.00;;;;;;4994457;28;20786;-69
2024/01/22 10:01:49;;;;;;;1.67;0.90;;;11.10;23.30;;;;;;4994248;28;20478;-69
2024/01/22 10:04:16;;;;;;;1.63;1.03;;;11.10;30.00;;;;;;4994079;28;20975;-69
2024/01/22 10:06:43;;;;;;;1.20;0.90;;;11.10;30.50;;;;;;5004011;28;20441;-69
2024/01/22 10:09:09;;;;;;;0.60;0.60;;;11.10;36.00;;;;;;5006658;28;20435;-69
2024/01/22 10:11:35;;;;;;;1.43;0.70;;;11.10;37.20;;;;;;4994173;28;20500;-69
2024/01/22 10:14:01;;;;;;;0.90;0.70;;;11.20;40.20;;;;;;4994158;28;20427;-69
2024/01/22 10:16:28;;;;;;;0.90;0.90;;;11.20;39.30;;;;;;4993415;28;20446;-69
2024/01/22 10:19:07;;;;;;;1.20;1.10;;;11.20;39.60;;;;;;4993734;28;20199;-69
2024/01/22 10:21:33;;;;;;;1.20;1.10;;;11.10;44.30;;;;;;4994010;28;20920;-69
2024/01/22 10:24:00;;;;;;;1.37;1.27;;;11.10;44.20;;;;;;4994299;28;20557;-69
2024/01/22 10:26:26;;;;;;;1.27;1.10;;;11.20;45.10;;;;;;4997998;28;20456;-70
2024/01/22 10:28:52;;;;;;;1.03;0.93;;;11.20;46.90;;;;;;5013479;28;20781;-70
2024/01/22 10:31:18;;;;;;;1.37;0.80;;;11.20;47.20;;;;;;5013434;28;20647;-70
2024/01/22 10:33:44;;;;;;;0.90;0.90;;;11.20;45.10;;;;;;5003935;28;20422;-71
2024/01/22 10:36:19;;;;;;;1.83;1.20;;;11.10;45.40;;;;;;4993726;28;20513;-71
2024/01/22 10:38:47;;;;;;;1.23;1.17;;;11.10;45.30;;;;;;4996261;28;20637;-71
2024/01/22 10:41:20;;;;;;;3.20;2.07;;;11.10;49.70;;;;;;5013356;28;20426;-71
2024/01/22 10:43:46;;;;;;;1.43;1.33;;;11.10;62.00;;;;;;5013305;28;20445;-71
2024/01/22 10:46:12;;;;;;;1.00;0.90;;;11.10;56.40;;;;;;5013156;28;20425;-71
2024/01/22 10:48:40;;;;;;;2.27;1.23;;;11.10;56.70;;;;;;5012842;28;20429;-71
2024/01/22 10:51:09;;;;;;;3.53;1.10;;;11.20;58.20;;;;;;5012454;28;20457;-69
2024/01/22 10:53:36;;;;;;;0.90;0.90;;;11.30;54.00;;;;;;5003818;28;20465;-69
2024/01/22 10:56:11;;;;;;;1.63;1.23;;;11.30;52.80;;;;;;5003287;28;20948;-69
2024/01/22 10:58:44;;;;;;;1.40;1.30;;;11.30;53.00;;;;;;5007558;28;20425;-68
2024/01/22 11:01:23;;;;;;;3.80;1.20;;;11.30;50.20;;;;;;5012987;28;20426;-70
2024/01/22 11:03:56;;;;;;;1.20;1.10;;;11.30;50.10;;;;;;5012909;28;20456;-70
2024/01/22 11:06:27;;;;;;;1.07;1.03;;;11.30;46.80;;;;;;5013058;28;20429;-70
2024/01/22 11:08:54;;;;;;;1.20;1.10;;;11.30;45.20;;;;;;5004552;28;20436;-70
2024/01/22 11:11:22;;;;;;;1.30;1.20;;;11.40;45.90;;;;;;4998519;28;20846;-70
2024/01/22 11:13:58;;;;;;;1.10;0.90;;;11.50;40.30;;;;;;5012400;28;20846;-70
2024/01/22 11:16:24;;;;;;;1.33;1.13;;;11.60;71.00;;;;;;5012485;28;20452;-71
2024/01/22 11:18:57;;;;;;;1.93;1.13;;;11.60;91.10;;;;;;5012433;28;20430;-70
2024/01/22 11:21:24;;;;;;;7.60;3.73;;;11.50;65.40;;;;;;5012587;28;20175;-70
2024/01/22 11:24:10;;;;;;;2.13;1.40;;;11.60;52.20;;;;;;5011856;28;20453;-70
2024/01/22 11:26:42;;;;;;;1.30;1.20;;;11.70;40.00;;;;;;5012268;28;21079;-70
2024/01/22 11:29:09;;;;;;;1.63;1.53;;;11.80;44.50;;;;;;5012432;28;20923;-69
2024/01/22 11:31:35;;;;;;;1.10;0.90;;;11.80;82.60;;;;;;5012451;28;20417;-70
2024/01/22 11:34:02;;;;;;;1.23;0.90;;;11.60;99.90;;;;;;5012063;28;20516;-70
2024/01/22 11:36:52;;;;;;;1.00;0.87;;;11.30;99.90;;;;;;5012181;28;20950;-70
2024/01/22 11:39:39;;;;;;;1.03;0.93;;;11.10;99.90;;;;;;5011698;28;20433;-70
2024/01/22 11:42:17;;;;;;;0.90;0.90;;;11.10;99.90;;;;;;5012344;28;20413;-69
2024/01/22 11:44:50;;;;;;;3.17;2.07;;;11.30;99.90;;;;;;5012531;28;20476;-70
2024/01/22 11:47:17;;;;;;;1.50;1.40;;;11.40;99.90;;;;;;5012351;28;20442;-70
2024/01/22 11:49:43;;;;;;;0.70;0.70;;;11.40;99.90;;;;;;5012263;28;20429;-70
2024/01/22 11:52:13;;;;;;;1.67;1.17;;;11.40;99.90;;;;;;5012416;28;20430;-69
2024/01/22 11:54:50;;;;;;;2.20;1.20;;;11.40;99.90;;;;;;5010501;28;20438;-69
2024/01/22 11:57:17;;;;;;;1.27;1.13;;;11.50;99.90;;;;;;5012409;28;20551;-70
2024/01/22 11:59:42;;;;;;;0.70;0.70;;;11.50;99.90;;;;;;5012287;28;20460;-70
2024/01/22 12:02:10;;;;;;;1.00;0.90;;;11.40;99.90;;;;;;5011826;28;20857;-70
2024/01/22 12:04:36;;;;;;;2.33;0.90;;;11.40;99.90;;;;;;5011978;28;20245;-71
2024/01/22 12:07:01;;;;;;;0.80;0.80;;;11.40;99.90;;;;;;5004404;28;20473;-70
2024/01/22 12:09:36;;;;;;;0.80;0.80;;;11.40;99.90;;;;;;5012076;28;20175;-70
2024/01/22 12:12:04;;;;;;;1.13;0.80;;;11.40;99.90;;;;;;5011978;28;20174;-70
2024/01/22 12:14:30;;;;;;;0.90;0.90;;;11.50;99.90;;;;;;5012104;28;20422;-70
2024/01/22 12:17:02;;;;;;;3.90;0.70;;;11.50;99.90;;;;;;5011747;28;20957;-70
2024/01/22 12:19:28;;;;;;;1.20;1.03;;;11.50;99.90;;;;;;5011978;28;20450;-70
2024/01/22 12:21:53;;;;;;;1.13;0.77;;;11.50;99.90;;;;;;5011856;28;20445;-70
2024/01/22 12:24:19;;;;;;;1.70;0.80;;;11.60;99.90;;;;;;5010703;28;20238;-71
2024/01/22 12:26:45;;;;;;;1.40;1.10;;;11.60;99.90;;;;;;5011405;28;20257;-72
2024/01/22 12:29:23;;;;;;;0.90;0.90;;;11.80;99.90;;;;;;5011380;28;20418;-70
2024/01/22 12:31:48;;;;;;;3.47;2.37;;;11.90;99.90;;;;;;5002275;28;20172;-70
2024/01/22 12:34:14;;;;;;;2.60;1.10;;;11.90;99.90;;;;;;4992392;28;20431;-71
2024/01/22 12:36:39;;;;;;;0.73;0.73;;;11.80;99.90;;;;;;4997327;28;20205;-70
2024/01/22 12:39:07;;;;;;;1.27;1.17;;;11.70;99.90;;;;;;5011832;28;20167;-70
2024/01/22 12:41:33;;;;;;;1.20;1.00;;;11.70;99.90;;;;;;5011810;28;20559;-71
2024/01/22 12:43:59;;;;;;;1.53;1.30;;;11.60;99.90;;;;;;5011606;28;20462;-71
2024/01/22 12:46:25;;;;;;;1.00;0.70;;;11.60;99.90;;;;;;5007566;28;20273;-70
2024/01/22 12:48:55;;;;;;;0.93;0.93;;;11.60;99.90;;;;;;5013820;28;20580;-71
2024/01/22 12:51:24;;;;;;;1.17;1.03;;;11.60;99.90;;;;;;5014570;28;20420;-70
2024/01/22 12:53:50;;;;;;;1.10;1.10;;;11.60;99.90;;;;;;4995702;28;20429;-70